Time;durP1;ratioP1;P1;durP2;ratioP2;P2;SDS_P1;SDS_P2;PMS_P1;PMS_P2;Temp;Humidity;BMP_temperature;BMP_pressure;BME280_temperature;BME280_humidity;BME280_pressure;Samples;Min_cycle;Max_cycle;Signal;HPM_P1;HPM_P2
2021/08/12 00:02:06;;;;;;;6.50;5.27;;;;;;;;;;5055763;28;20457;-80
2021/08/12 00:04:32;;;;;;;5.90;5.40;;;;;;;;;;5055594;28;20442;-80
2021/08/12 00:06:59;;;;;;;5.63;4.97;;;;;;;;;;5055403;28;20596;-80
2021/08/12 00:09:25;;;;;;;9.63;5.93;;;;;;;;;;5055236;28;20449;-79
2021/08/12 00:11:51;;;;;;;5.37;4.87;;;;;;;;;;5055455;28;20423;-80
2021/08/12 00:14:17;;;;;;;5.77;5.17;;;;;;;;;;5055543;28;20494;-79
2021/08/12 00:16:43;;;;;;;5.97;5.47;;;;;;;;;;5055479;28;20426;-78
2021/08/12 00:19:12;;;;;;;5.63;4.70;;;;;;;;;;5055522;28;20445;-82
2021/08/12 00:24:41;;;;;;;5.93;5.33;;;;;;;;;;5055166;28;20409;-81
2021/08/12 00:27:07;;;;;;;7.43;6.17;;;;;;;;;;5055381;28;20842;-81
2021/08/12 00:29:33;;;;;;;8.00;5.60;;;;;;;;;;5054691;28;20446;-80
2021/08/12 00:32:00;;;;;;;6.50;5.90;;;;;;;;;;5055223;28;20415;-80
2021/08/12 00:34:26;;;;;;;7.87;6.40;;;;;;;;;;5054191;28;20415;-81
2021/08/12 00:39:56;;;;;;;7.30;5.60;;;;;;;;;;5054796;28;20825;-79
2021/08/12 00:42:22;;;;;;;6.47;5.97;;;;;;;;;;5055192;28;20507;-80
2021/08/12 00:44:48;;;;;;;7.50;5.70;;;;;;;;;;5054964;28;20419;-80
2021/08/12 00:47:14;;;;;;;6.80;6.13;;;;;;;;;;5054882;28;20454;-80
2021/08/12 00:49:40;;;;;;;5.77;5.13;;;;;;;;;;5053635;28;20448;-80
2021/08/12 00:55:10;;;;;;;7.93;5.97;;;;;;;;;;5054561;28;20514;-79
2021/08/12 00:57:36;;;;;;;6.93;6.23;;;;;;;;;;5054757;28;20963;-79
2021/08/12 01:00:04;;;;;;;7.50;6.80;;;;;;;;;;5055039;28;21086;-80
2021/08/12 01:02:30;;;;;;;11.80;6.43;;;;;;;;;;5054708;28;20419;-81
2021/08/12 01:04:56;;;;;;;6.13;5.53;;;;;;;;;;5054917;28;20900;-81
2021/08/12 01:10:46;;;;;;;6.30;5.70;;;;;;;;;;5054289;28;20458;-79
2021/08/12 01:13:17;;;;;;;8.30;5.17;;;;;;;;;;5054882;28;20414;-79
2021/08/12 01:15:46;;;;;;;7.30;6.47;;;;;;;;;;5054371;28;20831;-81
2021/08/12 01:18:33;;;;;;;6.40;5.80;;;;;;;;;;5053151;28;20423;-80
2021/08/12 01:21:08;;;;;;;6.77;6.17;;;;;;;;;;5054044;28;20419;-80
2021/08/12 01:23:34;;;;;;;7.47;5.70;;;;;;;;;;5054198;28;20820;-78
2021/08/12 01:26:01;;;;;;;5.50;4.97;;;;;;;;;;5053799;28;20419;-80
2021/08/12 01:28:29;;;;;;;10.67;6.37;;;;;;;;;;5054016;28;20832;-79
2021/08/12 01:31:13;;;;;;;7.47;6.30;;;;;;;;;;5054104;28;20493;-79
2021/08/12 01:33:45;;;;;;;8.83;5.87;;;;;;;;;;5053930;28;20419;-80
2021/08/12 01:36:13;;;;;;;6.83;5.20;;;;;;;;;;5053868;28;20543;-77
2021/08/12 01:38:40;;;;;;;6.00;5.50;;;;;;;;;;5054085;28;20474;-80
2021/08/12 01:41:06;;;;;;;9.03;5.53;;;;;;;;;;5053629;28;20426;-80
2021/08/12 01:43:33;;;;;;;9.63;6.27;;;;;;;;;;5053926;28;20446;-80
2021/08/12 01:46:00;;;;;;;7.00;6.20;;;;;;;;;;5053717;28;20403;-80
2021/08/12 01:48:26;;;;;;;5.90;5.37;;;;;;;;;;5053675;28;20470;-78
2021/08/12 01:50:53;;;;;;;9.33;5.53;;;;;;;;;;5053888;28;20833;-82
2021/08/12 01:53:20;;;;;;;8.60;6.03;;;;;;;;;;5053762;28;20777;-79
2021/08/12 01:55:47;;;;;;;6.13;5.03;;;;;;;;;;5052247;28;21016;-79
2021/08/12 01:58:13;;;;;;;7.40;5.70;;;;;;;;;;5053884;28;20451;-79
2021/08/12 02:00:42;;;;;;;6.10;5.50;;;;;;;;;;5053890;28;20423;-80
2021/08/12 02:03:08;;;;;;;9.30;6.10;;;;;;;;;;5052754;28;20442;-79
2021/08/12 02:05:34;;;;;;;9.03;6.47;;;;;;;;;;5053555;28;20427;-78
2021/08/12 02:11:04;;;;;;;8.10;7.13;;;;;;;;;;5053189;28;20421;-79
2021/08/12 02:13:30;;;;;;;8.50;6.50;;;;;;;;;;5053533;28;20810;-80
2021/08/12 02:15:56;;;;;;;8.40;6.63;;;;;;;;;;5053175;28;20827;-80
2021/08/12 02:18:22;;;;;;;7.13;5.13;;;;;;;;;;5053438;28;20514;-79
2021/08/12 02:26:42;;;;;;;8.53;5.97;;;;;;;;;;5052890;28;20457;-80
2021/08/12 02:29:08;;;;;;;6.93;5.80;;;;;;;;;;5052395;28;21024;-80
2021/08/12 02:31:35;;;;;;;8.93;7.27;;;;;;;;;;5053066;28;20450;-80
2021/08/12 02:34:01;;;;;;;7.50;6.70;;;;;;;;;;5052873;28;20423;-80
2021/08/12 02:36:28;;;;;;;6.73;6.10;;;;;;;;;;5052763;28;20474;-80
2021/08/12 02:38:55;;;;;;;6.57;5.97;;;;;;;;;;5052898;28;20540;-80
2021/08/12 02:41:22;;;;;;;8.47;5.93;;;;;;;;;;5052947;28;20461;-79
2021/08/12 02:43:48;;;;;;;7.00;5.50;;;;;;;;;;5053162;28;20423;-80
2021/08/12 02:46:16;;;;;;;6.77;6.17;;;;;;;;;;5052928;28;20416;-78
2021/08/12 02:48:43;;;;;;;7.37;6.10;;;;;;;;;;5052659;28;20467;-79
2021/08/12 02:51:09;;;;;;;6.83;5.53;;;;;;;;;;5052745;28;20419;-79
2021/08/12 02:56:38;;;;;;;8.37;6.63;;;;;;;;;;5052789;28;20433;-78
2021/08/12 02:59:05;;;;;;;6.90;5.93;;;;;;;;;;5052097;28;20909;-78
2021/08/12 03:01:34;;;;;;;6.73;6.03;;;;;;;;;;5052883;28;20422;-76
2021/08/12 03:04:00;;;;;;;6.53;5.80;;;;;;;;;;5052676;28;20426;-78
2021/08/12 03:06:27;;;;;;;7.10;6.10;;;;;;;;;;5052520;28;20426;-75
2021/08/12 03:08:53;;;;;;;7.10;5.60;;;;;;;;;;5052546;28;20504;-75
2021/08/12 03:11:20;;;;;;;7.37;6.60;;;;;;;;;;5051513;28;20419;-77
2021/08/12 03:13:47;;;;;;;10.30;7.30;;;;;;;;;;5052650;28;20427;-80
2021/08/12 03:16:13;;;;;;;10.60;6.73;;;;;;;;;;5052819;28;20802;-77
2021/08/12 03:18:39;;;;;;;9.20;6.63;;;;;;;;;;5051528;28;20430;-77
2021/08/12 03:21:10;;;;;;;8.20;6.90;;;;;;;;;;5052476;28;20832;-77
2021/08/12 03:26:40;;;;;;;7.00;6.40;;;;;;;;;;5052290;28;20975;-79
2021/08/12 03:29:06;;;;;;;6.37;5.77;;;;;;;;;;5051168;28;20430;-76
2021/08/12 03:31:32;;;;;;;7.33;6.63;;;;;;;;;;5052460;28;20983;-79
2021/08/12 03:33:58;;;;;;;7.43;6.17;;;;;;;;;;5052369;28;20422;-78
2021/08/12 03:36:23;;;;;;;7.50;6.80;;;;;;;;;;5052283;28;20471;-77
2021/08/12 03:41:53;;;;;;;9.37;6.67;;;;;;;;;;5052409;28;20496;-77
2021/08/12 03:44:19;;;;;;;7.13;6.43;;;;;;;;;;5052301;28;20415;-76
2021/08/12 03:46:45;;;;;;;8.90;7.50;;;;;;;;;;5051059;28;20462;-80
2021/08/12 03:49:11;;;;;;;7.33;6.63;;;;;;;;;;5052031;28;20423;-79
2021/08/12 03:51:37;;;;;;;9.70;6.90;;;;;;;;;;5052196;28;20418;-75
2021/08/12 03:57:07;;;;;;;7.20;6.50;;;;;;;;;;5052075;28;20955;-76
2021/08/12 03:59:33;;;;;;;6.80;6.10;;;;;;;;;;5052337;28;20918;-79
2021/08/12 04:01:59;;;;;;;11.90;6.77;;;;;;;;;;5050988;28;20905;-79
2021/08/12 04:04:26;;;;;;;7.43;6.57;;;;;;;;;;5052328;28;20437;-79
2021/08/12 04:06:52;;;;;;;7.57;5.97;;;;;;;;;;5052423;28;20510;-77
2021/08/12 04:09:18;;;;;;;10.63;6.73;;;;;;;;;;5053225;28;20411;-76
2021/08/12 04:11:44;;;;;;;8.27;6.63;;;;;;;;;;5056074;28;20423;-80
2021/08/12 04:14:10;;;;;;;7.27;6.23;;;;;;;;;;5056368;28;20820;-80
2021/08/12 04:16:36;;;;;;;9.87;6.80;;;;;;;;;;5055803;28;20422;-78
2021/08/12 04:19:02;;;;;;;11.57;7.03;;;;;;;;;;5055708;28;20415;-78
2021/08/12 04:21:28;;;;;;;8.33;7.40;;;;;;;;;;5054582;28;20442;-80
2021/08/12 04:26:58;;;;;;;9.23;7.20;;;;;;;;;;5055566;28;20461;-76
2021/08/12 04:29:24;;;;;;;10.43;7.80;;;;;;;;;;5055474;28;20898;-78
2021/08/12 04:31:50;;;;;;;9.00;8.10;;;;;;;;;;5055626;28;20476;-79
2021/08/12 04:34:16;;;;;;;8.57;7.00;;;;;;;;;;5055259;28;20438;-78
2021/08/12 04:36:42;;;;;;;7.40;6.70;;;;;;;;;;5055526;28;20441;-78
2021/08/12 04:42:12;;;;;;;9.57;6.37;;;;;;;;;;5055213;28;20467;-79
2021/08/12 04:44:38;;;;;;;7.50;6.53;;;;;;;;;;5055152;28;20455;-80
2021/08/12 04:47:04;;;;;;;7.97;6.43;;;;;;;;;;5055102;28;20545;-75
2021/08/12 04:49:30;;;;;;;6.33;5.57;;;;;;;;;;5054422;28;20415;-79
2021/08/12 04:51:56;;;;;;;9.10;6.00;;;;;;;;;;5055205;28;20415;-78
2021/08/12 04:57:25;;;;;;;8.00;6.27;;;;;;;;;;5054817;28;20518;-77
2021/08/12 04:59:52;;;;;;;10.50;6.60;;;;;;;;;;5054922;28;20423;-79
2021/08/12 05:02:18;;;;;;;9.90;6.50;;;;;;;;;;5054762;28;20518;-79
2021/08/12 05:04:44;;;;;;;7.90;6.97;;;;;;;;;;5054745;28;20750;-78
2021/08/12 05:07:10;;;;;;;11.00;7.40;;;;;;;;;;5054624;28;20570;-80
2021/08/12 05:12:39;;;;;;;8.50;6.60;;;;;;;;;;5054519;28;20432;-79
2021/08/12 05:15:06;;;;;;;9.90;7.17;;;;;;;;;;5054462;28;20425;-78
2021/08/12 05:17:32;;;;;;;11.77;7.63;;;;;;;;;;5054515;28;20410;-78
2021/08/12 05:19:58;;;;;;;10.37;6.93;;;;;;;;;;5054469;28;20420;-79
2021/08/12 05:22:24;;;;;;;11.77;8.73;;;;;;;;;;5053917;28;20938;-79
2021/08/12 05:27:54;;;;;;;9.03;7.23;;;;;;;;;;5054259;28;20493;-79
2021/08/12 05:30:20;;;;;;;9.10;7.27;;;;;;;;;;5054269;28;20414;-79
2021/08/12 05:32:47;;;;;;;6.80;6.10;;;;;;;;;;5054238;28;20435;-79
2021/08/12 05:35:13;;;;;;;9.47;7.40;;;;;;;;;;5053900;28;20486;-78
2021/08/12 05:37:39;;;;;;;8.17;6.90;;;;;;;;;;5054083;28;20479;-79
2021/08/12 05:40:05;;;;;;;7.43;6.67;;;;;;;;;;5052526;28;20435;-80
2021/08/12 05:42:31;;;;;;;11.53;7.83;;;;;;;;;;5053913;28;20488;-78
2021/08/12 05:44:57;;;;;;;8.10;6.73;;;;;;;;;;5053835;28;20885;-77
2021/08/12 05:47:23;;;;;;;9.10;7.33;;;;;;;;;;5053685;28;20501;-79
2021/08/12 05:49:49;;;;;;;7.00;6.37;;;;;;;;;;5053758;28;20422;-79
2021/08/12 05:52:15;;;;;;;7.07;6.30;;;;;;;;;;5053659;28;20427;-78
2021/08/12 05:57:44;;;;;;;10.03;7.20;;;;;;;;;;5053752;28;20510;-77
2021/08/12 06:00:11;;;;;;;7.87;6.53;;;;;;;;;;5051898;28;20466;-78
2021/08/12 06:02:37;;;;;;;8.03;6.77;;;;;;;;;;5052897;28;20421;-78
2021/08/12 06:05:03;;;;;;;10.20;6.00;;;;;;;;;;5052914;28;20423;-78
2021/08/12 06:07:29;;;;;;;7.17;6.00;;;;;;;;;;5052818;28;20569;-79
2021/08/12 06:12:58;;;;;;;15.97;7.20;;;;;;;;;;5052794;28;20413;-80
2021/08/12 06:15:25;;;;;;;7.70;6.83;;;;;;;;;;5052765;28;20418;-80
2021/08/12 06:17:51;;;;;;;14.23;7.20;;;;;;;;;;5052814;28;20411;-79
2021/08/12 06:20:18;;;;;;;9.93;8.10;;;;;;;;;;5052159;28;20407;-77
2021/08/12 06:22:44;;;;;;;16.20;7.43;;;;;;;;;;5053198;28;20826;-81
2021/08/12 06:28:14;;;;;;;13.27;7.13;;;;;;;;;;5053286;28;20473;-82
2021/08/12 06:30:40;;;;;;;16.47;8.50;;;;;;;;;;5052194;28;20431;-80
2021/08/12 06:33:06;;;;;;;13.10;7.77;;;;;;;;;;5052111;28;20431;-80
2021/08/12 06:35:34;;;;;;;8.30;7.00;;;;;;;;;;5052888;28;20475;-81
2021/08/12 06:38:00;;;;;;;9.40;7.47;;;;;;;;;;5053036;28;20442;-81
2021/08/12 06:43:30;;;;;;;8.80;6.73;;;;;;;;;;5052983;28;20483;-80
2021/08/12 06:45:56;;;;;;;14.13;6.93;;;;;;;;;;5048215;28;20890;-80
2021/08/12 06:48:22;;;;;;;9.83;6.70;;;;;;;;;;5048240;28;20500;-80
2021/08/12 06:50:48;;;;;;;12.30;7.80;;;;;;;;;;5050887;28;20411;-79
2021/08/12 06:53:14;;;;;;;13.23;8.10;;;;;;;;;;5050878;28;20419;-82
2021/08/12 06:58:43;;;;;;;10.53;7.63;;;;;;;;;;5050626;28;20763;-81
2021/08/12 07:01:09;;;;;;;7.30;6.37;;;;;;;;;;5051442;28;20415;-82
2021/08/12 07:03:35;;;;;;;10.03;5.80;;;;;;;;;;5051353;28;20466;-81
2021/08/12 07:06:01;;;;;;;10.80;6.50;;;;;;;;;;5051347;28;20422;-81
2021/08/12 07:08:27;;;;;;;7.60;6.00;;;;;;;;;;5051284;28;20503;-80
2021/08/12 07:13:57;;;;;;;10.77;5.67;;;;;;;;;;5051192;28;20406;-80
2021/08/12 07:16:23;;;;;;;11.63;6.23;;;;;;;;;;5051468;28;20411;-81
2021/08/12 07:18:49;;;;;;;6.53;5.53;;;;;;;;;;5051076;28;20545;-80
2021/08/12 07:21:17;;;;;;;7.03;6.13;;;;;;;;;;5051198;28;20411;-77
2021/08/12 07:23:43;;;;;;;6.07;5.47;;;;;;;;;;5051168;28;20827;-77
2021/08/12 07:26:13;;;;;;;8.30;5.40;;;;;;;;;;5051366;28;20443;-80
2021/08/12 07:28:42;;;;;;;5.67;4.97;;;;;;;;;;5050785;28;20470;-80
2021/08/12 07:31:08;;;;;;;7.23;5.67;;;;;;;;;;5051207;28;20426;-77
2021/08/12 07:33:35;;;;;;;6.73;5.30;;;;;;;;;;5051172;28;20434;-80
2021/08/12 07:36:01;;;;;;;9.87;6.10;;;;;;;;;;5050795;28;20615;-78
2021/08/12 07:38:27;;;;;;;6.90;5.30;;;;;;;;;;5051302;28;20423;-80
2021/08/12 07:43:56;;;;;;;9.23;6.53;;;;;;;;;;5051187;28;20417;-80
2021/08/12 07:46:22;;;;;;;9.30;5.53;;;;;;;;;;5053683;28;20435;-80
2021/08/12 07:48:48;;;;;;;8.43;5.43;;;;;;;;;;5055077;28;20477;-81
2021/08/12 07:51:14;;;;;;;5.27;4.77;;;;;;;;;;5054695;28;20895;-82
2021/08/12 07:53:40;;;;;;;7.30;6.43;;;;;;;;;;5054838;28;20518;-82
2021/08/12 07:59:09;;;;;;;6.07;5.20;;;;;;;;;;5054605;28;20413;-81
2021/08/12 08:01:37;;;;;;;7.00;5.50;;;;;;;;;;5054546;28;20414;-82
2021/08/12 08:04:04;;;;;;;7.17;5.60;;;;;;;;;;5054928;28;20422;-82
2021/08/12 08:06:30;;;;;;;9.70;5.50;;;;;;;;;;5054738;28;20902;-82
2021/08/12 08:14:44;;;;;;;7.67;6.97;;;;;;;;;;5054465;28;20460;-81
2021/08/12 08:17:10;;;;;;;8.63;5.60;;;;;;;;;;5054553;28;20419;-81
2021/08/12 08:19:36;;;;;;;6.17;5.47;;;;;;;;;;5053196;28;20442;-80
2021/08/12 08:22:02;;;;;;;6.90;5.40;;;;;;;;;;5054387;28;20768;-80
2021/08/12 08:24:28;;;;;;;10.50;6.00;;;;;;;;;;5054246;28;20435;-81
2021/08/12 08:26:54;;;;;;;9.30;6.27;;;;;;;;;;5054357;28;20458;-74
2021/08/12 08:29:20;;;;;;;10.40;6.30;;;;;;;;;;5054208;28;20793;-81
2021/08/12 08:31:46;;;;;;;9.27;7.10;;;;;;;;;;5054324;28;20407;-81
2021/08/12 08:34:12;;;;;;;8.93;6.20;;;;;;;;;;5053881;28;20430;-79
2021/08/12 08:36:38;;;;;;;6.73;6.13;;;;;;;;;;5054140;28;20442;-76
2021/08/12 08:39:04;;;;;;;8.83;5.57;;;;;;;;;;5053665;28;20418;-83
2021/08/12 08:44:35;;;;;;;7.90;6.20;;;;;;;;;;5053820;28;20935;-81
2021/08/12 08:47:02;;;;;;;8.40;6.53;;;;;;;;;;5053868;28;20454;-79
2021/08/12 08:49:29;;;;;;;8.80;6.27;;;;;;;;;;5054129;28;20419;-78
2021/08/12 08:51:57;;;;;;;6.40;5.70;;;;;;;;;;5053910;28;20423;-81
2021/08/12 08:54:24;;;;;;;6.07;5.17;;;;;;;;;;5053551;28;20417;-80
2021/08/12 08:56:51;;;;;;;12.37;6.60;;;;;;;;;;5052546;28;20411;-79
2021/08/12 08:59:17;;;;;;;6.23;5.63;;;;;;;;;;5053351;28;20418;-79
2021/08/12 09:01:43;;;;;;;6.77;5.40;;;;;;;;;;5053561;28;20411;-80
2021/08/12 09:04:09;;;;;;;11.90;5.30;;;;;;;;;;5053395;28;20498;-78
2021/08/12 09:06:36;;;;;;;7.60;5.70;;;;;;;;;;5053215;28;20446;-79
2021/08/12 09:09:02;;;;;;;7.57;6.50;;;;;;;;;;5053001;28;20419;-79
2021/08/12 09:14:33;;;;;;;8.40;5.07;;;;;;;;;;5053023;28;20422;-78
2021/08/12 09:17:00;;;;;;;5.53;4.93;;;;;;;;;;5051864;28;20434;-77
2021/08/12 09:19:26;;;;;;;7.77;6.57;;;;;;;;;;5053162;28;20434;-80
2021/08/12 09:21:53;;;;;;;6.43;5.83;;;;;;;;;;5052033;28;20439;-78
2021/08/12 09:24:19;;;;;;;7.30;5.30;;;;;;;;;;5052646;28;20419;-80
2021/08/12 09:29:49;;;;;;;8.93;6.57;;;;;;;;;;5052728;28;20413;-79
2021/08/12 09:32:16;;;;;;;8.33;6.00;;;;;;;;;;5052371;28;20415;-78
2021/08/12 09:34:44;;;;;;;7.30;5.83;;;;;;;;;;5052455;28;20520;-79
2021/08/12 09:37:10;;;;;;;6.23;5.53;;;;;;;;;;5052847;28;20993;-80
2021/08/12 09:39:37;;;;;;;8.03;6.10;;;;;;;;;;5050953;28;20423;-79
2021/08/12 09:42:03;;;;;;;6.13;5.50;;;;;;;;;;5052560;28;20423;-77
2021/08/12 09:44:53;;;;;;;9.93;6.40;;;;;;;;;;5052323;28;20437;-79
2021/08/12 09:47:19;;;;;;;8.23;5.70;;;;;;;;;;5052100;28;20509;-79
2021/08/12 09:49:45;;;;;;;8.53;6.37;;;;;;;;;;5052296;28;20451;-79
2021/08/12 09:52:17;;;;;;;6.30;5.30;;;;;;;;;;5052385;28;20481;-79
2021/08/12 09:54:44;;;;;;;7.07;5.00;;;;;;;;;;5052380;28;20570;-77
2021/08/12 09:57:16;;;;;;;5.50;4.90;;;;;;;;;;5052352;28;20535;-79
2021/08/12 09:59:48;;;;;;;7.60;5.50;;;;;;;;;;5051000;28;20509;-78
2021/08/12 10:02:14;;;;;;;7.43;5.70;;;;;;;;;;5051108;28;20815;-78
2021/08/12 10:04:40;;;;;;;7.47;6.70;;;;;;;;;;5052095;28;20423;-80
2021/08/12 10:07:06;;;;;;;6.67;5.37;;;;;;;;;;5051537;28;20516;-80
2021/08/12 10:09:42;;;;;;;8.97;5.57;;;;;;;;;;5051701;28;20423;-81
2021/08/12 10:15:11;;;;;;;5.97;5.37;;;;;;;;;;5051897;28;20402;-79
2021/08/12 10:17:38;;;;;;;6.23;5.63;;;;;;;;;;5051629;28;20411;-78
2021/08/12 10:20:05;;;;;;;6.87;6.20;;;;;;;;;;5051609;28;20457;-79
2021/08/12 10:22:31;;;;;;;6.97;5.40;;;;;;;;;;5051780;28;20806;-81
2021/08/12 10:24:57;;;;;;;9.50;7.10;;;;;;;;;;5050123;28;20415;-77
2021/08/12 10:27:23;;;;;;;6.77;5.33;;;;;;;;;;5051514;28;20467;-75
2021/08/12 10:29:49;;;;;;;7.90;6.17;;;;;;;;;;5051641;28;20506;-79
2021/08/12 10:32:16;;;;;;;6.20;5.60;;;;;;;;;;5051826;28;20415;-78
2021/08/12 10:34:42;;;;;;;7.17;6.47;;;;;;;;;;5051560;28;20684;-79
2021/08/12 10:37:10;;;;;;;7.80;6.90;;;;;;;;;;5051193;28;20517;-79
2021/08/12 10:39:39;;;;;;;7.10;5.47;;;;;;;;;;5051320;28;20419;-78
2021/08/12 10:45:08;;;;;;;6.63;5.80;;;;;;;;;;5051430;28;20472;-78
2021/08/12 10:47:42;;;;;;;6.63;6.03;;;;;;;;;;5050875;28;20502;-79
2021/08/12 10:50:37;;;;;;;7.73;6.40;;;;;;;;;;5051250;28;20411;-76
2021/08/12 10:55:55;;;;;;;8.30;6.20;;;;;;;;;;5050931;28;20506;-79
2021/08/12 11:00:54;;;;;;;5.97;5.47;;;;;;;;;;5051329;28;20419;-78
2021/08/12 11:03:32;;;;;;;7.37;5.83;;;;;;;;;;5051194;28;20842;-77
2021/08/12 11:06:05;;;;;;;6.50;5.37;;;;;;;;;;5051215;28;20476;-78
2021/08/12 11:08:53;;;;;;;8.83;6.37;;;;;;;;;;5050956;28;20473;-78
2021/08/12 11:11:28;;;;;;;6.47;5.80;;;;;;;;;;5050996;28;20852;-79
2021/08/12 11:13:55;;;;;;;6.67;6.00;;;;;;;;;;5051084;28;20425;-74
2021/08/12 11:16:25;;;;;;;6.53;5.83;;;;;;;;;;5051029;28;20413;-77
2021/08/12 11:18:55;;;;;;;6.30;5.50;;;;;;;;;;5050971;28;20415;-79
2021/08/12 11:21:30;;;;;;;5.67;5.17;;;;;;;;;;5055219;28;20498;-77
2021/08/12 11:24:00;;;;;;;8.03;6.57;;;;;;;;;;5054937;28;20414;-79
2021/08/12 11:26:26;;;;;;;7.07;6.33;;;;;;;;;;5054794;28;20414;-80
2021/08/12 11:28:56;;;;;;;9.67;6.23;;;;;;;;;;5054906;28;20519;-78
2021/08/12 11:31:23;;;;;;;7.00;6.40;;;;;;;;;;5054861;28;20706;-77
2021/08/12 11:33:53;;;;;;;6.70;6.10;;;;;;;;;;5054430;28;20514;-78
2021/08/12 11:36:27;;;;;;;6.03;5.57;;;;;;;;;;5054273;28;20512;-80
2021/08/12 11:38:53;;;;;;;8.60;6.80;;;;;;;;;;5054571;28;20794;-78
2021/08/12 11:41:19;;;;;;;6.90;6.20;;;;;;;;;;5053051;28;20457;-80
2021/08/12 11:43:45;;;;;;;7.90;7.20;;;;;;;;;;5054544;28;20817;-76
2021/08/12 11:46:12;;;;;;;8.13;6.73;;;;;;;;;;5054474;28;20472;-80
2021/08/12 11:48:38;;;;;;;8.27;6.23;;;;;;;;;;5054560;28;20891;-79
2021/08/12 11:51:05;;;;;;;6.57;5.97;;;;;;;;;;5054323;28;20464;-78
2021/08/12 11:53:48;;;;;;;6.63;6.03;;;;;;;;;;5054322;28;20407;-78
2021/08/12 11:56:15;;;;;;;8.90;6.47;;;;;;;;;;5054131;28;20843;-80
2021/08/12 11:58:45;;;;;;;6.70;6.00;;;;;;;;;;5054458;28;20419;-78
2021/08/12 12:01:12;;;;;;;6.07;5.57;;;;;;;;;;5054365;28;20430;-77
2021/08/12 12:03:38;;;;;;;7.10;6.40;;;;;;;;;;5054446;28;20560;-79
2021/08/12 12:06:04;;;;;;;6.63;5.93;;;;;;;;;;5054468;28;20430;-79
2021/08/12 12:08:30;;;;;;;7.27;6.50;;;;;;;;;;5053466;28;20943;-78
2021/08/12 12:11:06;;;;;;;6.97;6.27;;;;;;;;;;5054363;28;20443;-79
2021/08/12 12:13:32;;;;;;;7.53;6.83;;;;;;;;;;5054592;28;20535;-79
2021/08/12 12:15:58;;;;;;;7.37;6.73;;;;;;;;;;5054487;28;20407;-75
2021/08/12 12:18:34;;;;;;;7.00;6.40;;;;;;;;;;5054128;28;20422;-78
2021/08/12 12:21:04;;;;;;;7.60;6.90;;;;;;;;;;5054443;28;20765;-77
2021/08/12 12:23:30;;;;;;;5.67;5.17;;;;;;;;;;5053736;28;20448;-77
2021/08/12 12:25:56;;;;;;;7.80;6.47;;;;;;;;;;5053860;28;20454;-79
2021/08/12 12:28:22;;;;;;;7.77;6.60;;;;;;;;;;5054171;28;20474;-77
2021/08/12 12:30:48;;;;;;;9.40;6.40;;;;;;;;;;5053932;28;20403;-77
2021/08/12 12:33:18;;;;;;;6.40;5.80;;;;;;;;;;5053315;28;20422;-78
2021/08/12 12:35:47;;;;;;;6.13;5.63;;;;;;;;;;5053673;28;20470;-78
2021/08/12 12:38:18;;;;;;;6.73;6.13;;;;;;;;;;5049822;28;20442;-77
2021/08/12 12:46:52;;;;;;;6.40;5.80;;;;;;;;;;5053445;28;20406;-77
2021/08/12 12:49:25;;;;;;;6.67;6.07;;;;;;;;;;5053370;28;20427;-77
2021/08/12 12:51:51;;;;;;;6.37;5.77;;;;;;;;;;5053434;28;20522;-78
2021/08/12 12:54:29;;;;;;;6.63;6.03;;;;;;;;;;5053119;28;20421;-78
2021/08/12 12:56:55;;;;;;;6.20;5.70;;;;;;;;;;5052060;28;20506;-75
2021/08/12 12:59:21;;;;;;;8.43;6.20;;;;;;;;;;5053619;28;20506;-76
2021/08/12 13:01:54;;;;;;;6.17;5.57;;;;;;;;;;5053107;28;20426;-77
2021/08/12 13:04:21;;;;;;;6.70;6.20;;;;;;;;;;5053354;28;20451;-75
2021/08/12 13:06:47;;;;;;;5.90;4.90;;;;;;;;;;5052275;28;20503;-77
2021/08/12 13:09:30;;;;;;;6.27;5.67;;;;;;;;;;5052357;28;20910;-75
2021/08/12 13:11:56;;;;;;;6.50;5.97;;;;;;;;;;5052517;28;20807;-75
2021/08/12 13:14:32;;;;;;;5.50;5.10;;;;;;;;;;5052733;28;20415;-76
2021/08/12 13:16:58;;;;;;;6.07;5.57;;;;;;;;;;5053296;28;20477;-74
2021/08/12 13:19:25;;;;;;;6.07;5.47;;;;;;;;;;5053048;28;20423;-77
2021/08/12 13:21:54;;;;;;;5.60;5.20;;;;;;;;;;5053156;28;20414;-77
2021/08/12 13:24:21;;;;;;;5.63;5.20;;;;;;;;;;5052683;28;20438;-77
2021/08/12 13:26:59;;;;;;;6.70;6.07;;;;;;;;;;5052920;28;20438;-77
2021/08/12 13:29:33;;;;;;;6.77;6.20;;;;;;;;;;5052783;28;20426;-76
2021/08/12 13:32:06;;;;;;;8.40;5.80;;;;;;;;;;5052671;28;20411;-77
2021/08/12 13:34:33;;;;;;;7.07;6.57;;;;;;;;;;5052394;28;20573;-77
2021/08/12 13:36:59;;;;;;;7.37;5.93;;;;;;;;;;5052577;28;20419;-79
2021/08/12 13:39:25;;;;;;;7.70;5.97;;;;;;;;;;5052360;28;20419;-75
2021/08/12 13:41:59;;;;;;;7.03;6.37;;;;;;;;;;5051640;28;20894;-78
2021/08/12 13:44:26;;;;;;;6.83;6.23;;;;;;;;;;5052303;28;20457;-76
2021/08/12 13:46:54;;;;;;;6.87;6.17;;;;;;;;;;5052072;28;20403;-77
2021/08/12 13:49:21;;;;;;;8.07;5.83;;;;;;;;;;5052231;28;20423;-76
2021/08/12 13:51:47;;;;;;;7.30;6.60;;;;;;;;;;5052356;28;20883;-77
2021/08/12 13:54:13;;;;;;;9.33;6.40;;;;;;;;;;5047685;28;20494;-77
2021/08/12 13:56:39;;;;;;;6.00;5.50;;;;;;;;;;5052083;28;20443;-78
2021/08/12 13:59:06;;;;;;;6.40;5.83;;;;;;;;;;5052400;28;20423;-77
2021/08/12 14:01:32;;;;;;;6.33;5.67;;;;;;;;;;5052410;28;20500;-77
2021/08/12 14:03:58;;;;;;;8.47;6.00;;;;;;;;;;5052251;28;20469;-76
2021/08/12 14:06:25;;;;;;;7.97;7.30;;;;;;;;;;5051844;28;20442;-78
2021/08/12 14:08:51;;;;;;;6.73;6.20;;;;;;;;;;5052108;28;20462;-77
2021/08/12 14:11:16;;;;;;;6.60;6.00;;;;;;;;;;5051639;28;20418;-77
2021/08/12 14:16:46;;;;;;;7.03;6.43;;;;;;;;;;5051663;28;20820;-77
2021/08/12 14:19:12;;;;;;;6.57;5.97;;;;;;;;;;5051809;28;20740;-77
2021/08/12 14:21:38;;;;;;;6.80;6.20;;;;;;;;;;5051734;28;20994;-76
2021/08/12 14:24:05;;;;;;;7.80;6.57;;;;;;;;;;5051331;28;20814;-75
2021/08/12 14:26:31;;;;;;;6.60;5.97;;;;;;;;;;5047959;28;20682;-76
2021/08/12 14:32:02;;;;;;;8.90;6.37;;;;;;;;;;5051346;28;20429;-78
2021/08/12 14:34:28;;;;;;;7.30;6.27;;;;;;;;;;5051652;28;20752;-76
2021/08/12 14:36:54;;;;;;;7.37;6.57;;;;;;;;;;5051676;28;20411;-76
2021/08/12 14:39:20;;;;;;;7.93;6.90;;;;;;;;;;5051028;28;20418;-76
2021/08/12 14:41:46;;;;;;;7.53;6.40;;;;;;;;;;5051428;28;20430;-80
2021/08/12 14:47:19;;;;;;;9.37;5.80;;;;;;;;;;5051087;28;20458;-78
2021/08/12 14:49:45;;;;;;;9.33;6.60;;;;;;;;;;5046900;28;20427;-78
2021/08/12 14:52:11;;;;;;;6.23;5.73;;;;;;;;;;5051197;28;20906;-79
2021/08/12 14:54:37;;;;;;;7.80;5.60;;;;;;;;;;5049993;28;20438;-77
2021/08/12 14:57:03;;;;;;;6.80;6.20;;;;;;;;;;5051165;28;20462;-77
2021/08/12 14:59:30;;;;;;;9.60;5.90;;;;;;;;;;5050937;28;20518;-78
2021/08/12 15:01:56;;;;;;;7.47;6.73;;;;;;;;;;5050909;28;20462;-77
2021/08/12 15:04:22;;;;;;;6.27;5.77;;;;;;;;;;5051026;28;20423;-77
2021/08/12 15:06:48;;;;;;;7.27;6.57;;;;;;;;;;5050610;28;20498;-79
2021/08/12 15:09:14;;;;;;;6.67;5.50;;;;;;;;;;5050642;28;20927;-78
2021/08/12 15:11:40;;;;;;;8.30;6.37;;;;;;;;;;5050830;28;20415;-80
2021/08/12 15:17:10;;;;;;;6.40;5.80;;;;;;;;;;5050552;28;20510;-77
2021/08/12 15:19:36;;;;;;;6.93;6.23;;;;;;;;;;5050753;28;20450;-78
2021/08/12 15:22:02;;;;;;;6.90;6.20;;;;;;;;;;5050760;28;20465;-78
2021/08/12 15:24:28;;;;;;;7.27;6.67;;;;;;;;;;5050667;28;20426;-77
2021/08/12 15:26:54;;;;;;;6.53;5.80;;;;;;;;;;5050532;28;20439;-77
2021/08/12 15:32:24;;;;;;;9.07;6.40;;;;;;;;;;5050545;28;20476;-77
2021/08/12 15:34:53;;;;;;;7.07;6.47;;;;;;;;;;5050431;28;20462;-78
2021/08/12 15:37:20;;;;;;;11.17;6.40;;;;;;;;;;5050654;28;20427;-77
2021/08/12 15:39:46;;;;;;;7.30;6.60;;;;;;;;;;5049708;28;20834;-78
2021/08/12 15:42:12;;;;;;;7.40;6.70;;;;;;;;;;5050773;28;20488;-76
2021/08/12 15:47:41;;;;;;;6.87;6.27;;;;;;;;;;5050179;28;20556;-74
2021/08/12 15:50:08;;;;;;;7.77;6.47;;;;;;;;;;5050234;28;20450;-74
2021/08/12 15:52:34;;;;;;;6.60;5.97;;;;;;;;;;5048747;28;20483;-75
2021/08/12 15:55:06;;;;;;;6.67;5.97;;;;;;;;;;5049971;28;20423;-75
2021/08/12 15:57:32;;;;;;;7.70;7.00;;;;;;;;;;5049893;28;20442;-75
2021/08/12 15:59:58;;;;;;;7.60;6.23;;;;;;;;;;5050158;28;20656;-75
2021/08/12 16:02:24;;;;;;;6.97;6.37;;;;;;;;;;5048516;28;20462;-74
2021/08/12 16:04:50;;;;;;;7.97;6.80;;;;;;;;;;5049688;28;20429;-76
2021/08/12 16:07:16;;;;;;;8.17;7.40;;;;;;;;;;5053036;28;20466;-76
2021/08/12 16:09:42;;;;;;;7.33;6.67;;;;;;;;;;5054267;28;20922;-78
2021/08/12 16:12:08;;;;;;;7.47;6.70;;;;;;;;;;5054132;28;20406;-80
2021/08/12 16:17:38;;;;;;;7.60;6.67;;;;;;;;;;5052914;28;20426;-78
2021/08/12 16:20:04;;;;;;;7.27;6.63;;;;;;;;;;5049931;28;20414;-78
2021/08/12 16:22:30;;;;;;;8.10;7.03;;;;;;;;;;5051845;28;20760;-79
2021/08/12 16:24:57;;;;;;;7.07;6.50;;;;;;;;;;5051387;28;20411;-77
2021/08/12 16:27:23;;;;;;;7.30;6.50;;;;;;;;;;5051861;28;20469;-76
2021/08/12 16:32:53;;;;;;;7.10;6.50;;;;;;;;;;5052505;28;20434;-79
2021/08/12 16:35:19;;;;;;;7.63;6.83;;;;;;;;;;5053108;28;20859;-78
2021/08/12 16:37:45;;;;;;;7.70;6.00;;;;;;;;;;5053147;28;20415;-79
2021/08/12 16:40:11;;;;;;;7.50;6.53;;;;;;;;;;5053110;28;20502;-79
2021/08/12 16:42:39;;;;;;;8.03;7.23;;;;;;;;;;5053066;28;20502;-80
2021/08/12 16:48:08;;;;;;;10.10;7.23;;;;;;;;;;5052607;28;20531;-79
2021/08/12 16:50:34;;;;;;;7.00;6.30;;;;;;;;;;5052203;28;20434;-79
2021/08/12 16:53:00;;;;;;;11.07;6.60;;;;;;;;;;5052735;28;20431;-79
2021/08/12 16:55:26;;;;;;;11.33;7.60;;;;;;;;;;5052383;28;20561;-80